createdAt,value
2019-05-02T00:02:23.940Z,20.83
2019-05-02T00:04:55.769Z,24.17
2019-05-02T00:07:23.433Z,21.17
2019-05-02T00:09:53.451Z,20.60
2019-05-02T00:12:23.428Z,25.10
2019-05-02T00:14:56.532Z,23.47
2019-05-02T00:17:27.521Z,19.90
2019-05-02T00:19:57.157Z,26.03
2019-05-02T00:22:26.771Z,21.73
2019-05-02T00:24:56.381Z,20.53
2019-05-02T00:27:25.874Z,23.37
2019-05-02T00:29:58.781Z,21.70
2019-05-02T00:32:26.832Z,18.97
2019-05-02T00:34:57.657Z,19.73
2019-05-02T00:37:27.281Z,19.33
2019-05-02T00:39:56.951Z,20.83
2019-05-02T00:42:26.594Z,29.27
2019-05-02T00:44:57.113Z,18.93
2019-05-02T00:47:28.366Z,22.73
2019-05-02T00:49:58.074Z,21.53
2019-05-02T00:52:27.657Z,22.37
2019-05-02T00:54:58.696Z,20.53
2019-05-02T00:57:28.534Z,19.83
2019-05-02T00:59:57.928Z,20.27
2019-05-02T01:02:29.174Z,19.00
2019-05-02T01:05:03.134Z,19.77
2019-05-02T01:07:30.546Z,19.93
2019-05-02T01:10:00.163Z,19.00
2019-05-02T01:12:29.655Z,19.17
2019-05-02T01:15:03.197Z,19.67
2019-05-02T01:17:30.925Z,20.33
2019-05-02T01:20:01.505Z,17.90
2019-05-02T01:22:31.045Z,21.57
2019-05-02T01:25:00.667Z,24.00
2019-05-02T01:27:35.981Z,20.10
2019-05-02T01:30:06.006Z,23.43
2019-05-02T01:32:37.438Z,19.67
2019-05-02T01:35:09.258Z,19.90
2019-05-02T01:37:40.372Z,16.70
2019-05-02T01:40:17.545Z,20.90
2019-05-02T01:42:44.499Z,20.77
2019-05-02T01:45:15.538Z,24.00
2019-05-02T01:47:45.150Z,25.97
2019-05-02T01:50:14.775Z,17.87
2019-05-02T01:52:44.271Z,26.73
2019-05-02T01:55:17.160Z,22.00
2019-05-02T01:57:46.233Z,26.40
2019-05-02T02:00:16.363Z,20.87
2019-05-02T02:02:45.783Z,23.77
2019-05-02T02:05:15.326Z,22.97
2019-05-02T02:07:44.813Z,21.67
2019-05-02T02:10:14.909Z,23.57
2019-05-02T02:13:02.775Z,25.83
2019-05-02T02:15:16.973Z,23.67
2019-05-02T02:17:46.854Z,26.47
2019-05-02T02:20:19.457Z,28.07
2019-05-02T02:22:50.552Z,23.93
2019-05-02T02:25:24.714Z,21.70
2019-05-02T02:27:54.900Z,27.53
2019-05-02T02:30:26.668Z,24.90
2019-05-02T02:33:00.421Z,21.97
2019-05-02T02:35:28.762Z,26.90
2019-05-02T02:37:58.496Z,21.57
2019-05-02T02:40:33.534Z,21.97
2019-05-02T02:43:12.698Z,25.03
2019-05-02T02:45:35.294Z,20.90
2019-05-02T02:48:04.945Z,26.03
2019-05-02T02:50:36.663Z,24.03
2019-05-02T02:53:05.615Z,23.63
2019-05-02T02:55:35.261Z,22.17
2019-05-02T02:58:06.605Z,24.27
2019-05-02T03:00:41.416Z,23.83
2019-05-02T03:03:07.970Z,22.13
2019-05-02T03:05:37.477Z,23.37
2019-05-02T03:08:07.330Z,23.40
2019-05-02T03:10:39.906Z,22.77
2019-05-02T03:13:15.027Z,24.60
2019-05-02T03:15:42.839Z,22.60
2019-05-02T03:18:12.472Z,22.67
2019-05-02T03:20:42.224Z,22.70
2019-05-02T03:23:15.063Z,22.90
2019-05-02T03:25:50.446Z,29.67
2019-05-02T03:28:18.543Z,25.73
2019-05-02T03:30:47.158Z,25.27
2019-05-02T03:33:17.087Z,25.73
2019-05-02T03:35:49.184Z,33.60
2019-05-02T03:38:18.019Z,22.23
2019-05-02T03:40:48.359Z,29.90
2019-05-02T03:43:19.039Z,26.23
2019-05-02T03:45:49.179Z,27.57
2019-05-02T03:48:25.845Z,28.23
2019-05-02T03:50:51.285Z,26.90
2019-05-02T03:53:24.974Z,28.47
2019-05-02T03:55:53.579Z,23.27
2019-05-02T03:58:23.317Z,28.60
2019-05-02T04:01:00.392Z,25.77
2019-05-02T04:03:24.441Z,23.17
2019-05-02T04:05:54.664Z,24.93
2019-05-02T04:08:24.888Z,25.00
2019-05-02T04:10:59.605Z,27.67
2019-05-02T04:13:30.076Z,24.80
2019-05-02T04:16:00.564Z,25.97
2019-05-02T04:18:30.703Z,29.93
2019-05-02T04:21:01.423Z,27.40
2019-05-02T04:23:30.996Z,28.97
2019-05-02T04:26:06.911Z,29.73
2019-05-02T04:28:33.733Z,33.43
2019-05-02T04:31:03.176Z,26.07
2019-05-02T04:33:35.066Z,31.37
2019-05-02T04:36:14.033Z,32.57
2019-05-02T04:38:46.553Z,47.17
2019-05-02T04:41:09.369Z,30.80
2019-05-02T04:43:43.095Z,30.73
2019-05-02T04:46:18.002Z,33.63
2019-05-02T04:48:48.279Z,34.93
2019-05-02T04:51:16.300Z,31.10
2019-05-02T04:53:45.430Z,30.57
2019-05-02T04:56:14.707Z,31.23
2019-05-02T04:58:44.277Z,34.80
2019-05-02T05:01:13.669Z,36.83
2019-05-02T05:03:43.086Z,35.83
2019-05-02T05:06:12.677Z,31.77
2019-05-02T05:08:42.301Z,34.40
2019-05-02T05:11:13.923Z,37.07
2019-05-02T05:13:42.996Z,32.07
2019-05-02T05:16:15.729Z,36.00
2019-05-02T05:18:48.683Z,41.77
2019-05-02T05:21:17.621Z,41.10
2019-05-02T05:23:51.747Z,39.07
2019-05-02T05:26:19.020Z,39.17
2019-05-02T05:28:48.561Z,37.95
2019-05-02T05:31:24.125Z,38.90
2019-05-02T05:34:04.331Z,44.80
2019-05-02T05:36:34.240Z,44.20
2019-05-02T05:39:08.560Z,49.20
2019-05-02T05:41:37.800Z,47.40
2019-05-02T05:44:23.347Z,49.93
2019-05-02T05:46:51.920Z,47.03
2019-05-02T05:49:21.872Z,50.67
2019-05-02T05:51:54.511Z,49.83
2019-05-02T05:54:38.400Z,51.53
2019-05-02T05:57:21.240Z,54.87
2019-05-02T05:59:50.807Z,57.57
2019-05-02T06:02:20.162Z,62.73
2019-05-02T06:04:50.259Z,64.20
2019-05-02T06:07:20.282Z,73.77
2019-05-02T06:09:49.836Z,64.47
2019-05-02T06:12:19.195Z,67.73
2019-05-02T06:14:49.625Z,70.03
2019-05-02T06:17:23.088Z,74.33
2019-05-02T06:19:53.613Z,68.23
2019-05-02T06:22:24.453Z,62.70
2019-05-02T06:24:53.338Z,81.30
2019-05-02T06:27:26.009Z,66.83
2019-05-02T06:29:56.164Z,55.70
2019-05-02T06:32:24.923Z,59.20
2019-05-02T06:34:54.405Z,60.07
2019-05-02T06:37:23.733Z,59.33
2019-05-02T06:39:54.234Z,62.43
2019-05-02T06:42:27.704Z,57.83
2019-05-02T06:44:59.780Z,47.17
2019-05-02T06:47:26.521Z,52.40
2019-05-02T06:49:56.271Z,44.20
2019-05-02T06:52:32.837Z,37.03
2019-05-02T06:54:59.966Z,45.03
2019-05-02T06:57:30.469Z,42.90
2019-05-02T07:00:00.017Z,35.90
2019-05-02T07:02:33.600Z,30.93
2019-05-02T07:05:00.665Z,34.40
2019-05-02T07:07:36.431Z,68.43
2019-05-02T07:10:02.428Z,31.63
2019-05-02T07:12:31.853Z,32.90
2019-05-02T07:15:01.935Z,35.27
2019-05-02T07:17:36.459Z,36.00
2019-05-02T07:20:08.195Z,29.40
2019-05-02T07:22:38.806Z,27.80
2019-05-02T07:25:10.277Z,32.40
2019-05-02T07:27:39.810Z,29.40
2019-05-02T07:30:11.180Z,29.53
2019-05-02T07:32:40.615Z,31.03
2019-05-02T07:35:11.944Z,27.90
2019-05-02T07:37:44.095Z,30.50
2019-05-02T07:40:17.001Z,42.63
2019-05-02T07:42:44.072Z,26.27
2019-05-02T07:45:14.346Z,25.30
2019-05-02T07:47:43.746Z,25.90
2019-05-02T07:50:13.933Z,28.17
2019-05-02T07:52:43.461Z,27.30
2019-05-02T07:55:12.861Z,21.97
2019-05-02T07:57:42.291Z,23.20
2019-05-02T08:00:13.857Z,25.30
2019-05-02T08:02:43.299Z,18.83
2019-05-02T08:05:15.711Z,22.47
2019-05-02T08:07:45.392Z,28.83
2019-05-02T08:10:21.699Z,26.07
2019-05-02T08:12:47.519Z,18.67
2019-05-02T08:15:17.033Z,19.37
2019-05-02T08:17:53.162Z,22.50
2019-05-02T08:20:19.216Z,21.57
2019-05-02T08:22:50.990Z,20.40
2019-05-02T08:25:20.473Z,20.97
2019-05-02T08:27:51.779Z,19.50
2019-05-02T08:30:23.128Z,22.33
2019-05-02T08:32:52.506Z,35.67
2019-05-02T08:35:21.931Z,17.57
2019-05-02T08:37:51.439Z,31.93
2019-05-02T08:40:20.853Z,19.77
2019-05-02T08:42:50.434Z,32.53
2019-05-02T08:45:20.070Z,19.67
2019-05-02T08:47:49.775Z,18.17
2019-05-02T08:50:19.378Z,24.10
2019-05-02T08:52:48.872Z,19.13
2019-05-02T08:55:18.334Z,27.37
2019-05-02T08:57:47.820Z,17.27
2019-05-02T09:00:17.840Z,18.20
2019-05-02T09:02:47.333Z,16.00
2019-05-02T09:05:17.111Z,30.33
2019-05-02T09:07:47.542Z,21.87
2019-05-02T09:10:18.825Z,67.17
2019-05-02T09:12:48.296Z,15.83
2019-05-02T09:15:18.215Z,18.63
2019-05-02T09:17:53.036Z,34.53
2019-05-02T09:20:20.940Z,63.27
2019-05-02T09:22:54.056Z,19.87
2019-05-02T09:25:22.081Z,29.27
2019-05-02T09:27:52.658Z,44.33
2019-05-02T09:30:25.650Z,39.40
2019-05-02T09:32:57.215Z,38.00
2019-05-02T09:35:25.073Z,21.93
2019-05-02T09:37:54.584Z,19.87
2019-05-02T09:40:24.243Z,20.03
2019-05-02T09:43:00.010Z,18.27
2019-05-02T09:45:27.749Z,25.33
2019-05-02T09:48:05.224Z,17.20
2019-05-02T09:50:32.242Z,20.30
2019-05-02T09:53:02.080Z,19.80
2019-05-02T09:55:31.972Z,28.40
2019-05-02T09:58:02.714Z,20.70
2019-05-02T10:00:36.190Z,26.68
2019-05-02T10:03:05.822Z,24.27
2019-05-02T10:05:35.442Z,25.00
2019-05-02T10:08:06.870Z,20.12
2019-05-02T10:10:37.103Z,18.85
2019-05-02T10:13:09.170Z,17.00
2019-05-02T10:15:38.763Z,17.02
2019-05-02T10:18:11.482Z,14.07
2019-05-02T10:20:41.728Z,21.23
2019-05-02T10:23:12.105Z,16.80
2019-05-02T10:25:46.783Z,17.75
2019-05-02T10:28:15.525Z,20.55
2019-05-02T10:30:47.283Z,23.20
2019-05-02T10:33:16.539Z,22.98
2019-05-02T10:35:47.602Z,18.37
2019-05-02T10:38:19.400Z,16.95
2019-05-02T10:40:56.513Z,24.30
2019-05-02T10:43:22.267Z,31.50
2019-05-02T10:45:56.414Z,19.70
2019-05-02T10:48:28.479Z,12.85
2019-05-02T10:50:57.758Z,20.00
2019-05-02T10:53:27.470Z,16.37
2019-05-02T10:55:56.831Z,13.50
2019-05-02T10:58:31.375Z,13.58
2019-05-02T11:00:57.464Z,22.45
2019-05-02T11:03:28.865Z,17.48
2019-05-02T11:06:03.633Z,20.60
2019-05-02T11:08:31.957Z,19.95
2019-05-02T11:11:05.950Z,11.97
2019-05-02T11:13:34.187Z,17.60
2019-05-02T11:16:05.554Z,13.48
2019-05-02T11:18:42.018Z,12.85
2019-05-02T11:21:09.674Z,8.60
2019-05-02T11:23:39.179Z,12.00
2019-05-02T11:26:08.904Z,12.03
2019-05-02T11:28:38.336Z,8.70
2019-05-02T11:31:10.119Z,15.75
2019-05-02T11:33:38.931Z,11.68
2019-05-02T11:36:08.485Z,11.63
2019-05-02T11:38:48.157Z,10.38
2019-05-02T11:41:09.191Z,13.83
2019-05-02T11:43:42.424Z,10.95
2019-05-02T11:46:09.783Z,16.82
2019-05-02T11:48:39.271Z,10.32
2019-05-02T11:51:12.701Z,13.83
2019-05-02T11:53:41.994Z,12.43
2019-05-02T11:56:13.480Z,15.68
2019-05-02T11:58:48.041Z,27.60
2019-05-02T12:01:20.194Z,12.95
2019-05-02T12:03:48.622Z,17.52
2019-05-02T12:06:19.775Z,11.68
2019-05-02T12:08:49.554Z,12.80
2019-05-02T12:11:19.320Z,10.78
2019-05-02T12:13:52.748Z,17.65
2019-05-02T12:16:20.135Z,12.07
2019-05-02T12:18:49.845Z,18.07
2019-05-02T12:21:19.453Z,13.72
2019-05-02T12:23:48.930Z,10.10
2019-05-02T12:26:18.392Z,11.00
2019-05-02T12:28:48.068Z,17.52
2019-05-02T12:31:22.154Z,19.55
2019-05-02T12:33:51.707Z,19.62
2019-05-02T12:36:22.749Z,11.38
2019-05-02T12:38:52.847Z,9.03
2019-05-02T12:41:25.141Z,11.35
2019-05-02T12:43:53.655Z,9.53
2019-05-02T12:46:23.199Z,10.63
2019-05-02T12:48:52.652Z,10.78
2019-05-02T12:51:22.668Z,11.43
2019-05-02T12:53:52.928Z,10.72
2019-05-02T12:56:24.071Z,7.42
2019-05-02T12:58:53.698Z,7.40
2019-05-02T13:01:23.243Z,12.40
2019-05-02T13:03:54.358Z,17.10
2019-05-02T13:06:23.801Z,11.68
2019-05-02T13:08:53.387Z,11.48
2019-05-02T13:11:29.097Z,6.65
2019-05-02T13:13:58.913Z,8.88
2019-05-02T13:16:28.305Z,11.88
2019-05-02T13:19:04.476Z,15.35
2019-05-02T13:21:40.067Z,13.58
2019-05-02T13:24:07.507Z,10.20
2019-05-02T13:26:34.994Z,10.05
2019-05-02T13:29:04.689Z,18.05
2019-05-02T13:31:35.984Z,19.45
2019-05-02T13:34:11.965Z,16.70
2019-05-02T13:36:42.333Z,37.28
2019-05-02T13:39:16.829Z,30.92
2019-05-02T13:41:46.635Z,43.05
2019-05-02T13:44:18.230Z,14.23
2019-05-02T13:46:47.791Z,9.03
2019-05-02T13:49:17.508Z,23.73
2019-05-02T13:51:47.187Z,29.15
2019-05-02T13:54:16.837Z,14.68
2019-05-02T13:56:48.227Z,14.98
2019-05-02T13:59:22.245Z,19.23
2019-05-02T14:01:53.875Z,16.75
2019-05-02T14:04:24.127Z,9.18
2019-05-02T14:06:53.940Z,10.50
2019-05-02T14:09:25.276Z,15.18
2019-05-02T14:11:58.105Z,7.28
2019-05-02T14:14:33.059Z,20.90
2019-05-02T14:17:03.123Z,24.57
2019-05-02T14:19:32.870Z,18.32
2019-05-02T14:22:03.462Z,19.60
2019-05-02T14:24:33.054Z,13.45
2019-05-02T14:27:02.861Z,28.02
2019-05-02T14:29:33.887Z,16.97
2019-05-02T14:32:05.047Z,13.95
2019-05-02T14:34:34.441Z,11.30
2019-05-02T14:37:04.069Z,7.28
2019-05-02T14:39:33.682Z,9.03
2019-05-02T14:42:03.393Z,18.37
2019-05-02T14:44:57.982Z,11.15
2019-05-02T14:47:04.217Z,9.90
2019-05-02T14:49:33.752Z,19.10
2019-05-02T14:52:06.969Z,7.55
2019-05-02T14:54:38.046Z,17.87
2019-05-02T14:57:07.293Z,18.73
2019-05-02T14:59:36.767Z,30.30
2019-05-02T15:02:07.993Z,11.57
2019-05-02T15:04:38.072Z,13.78
2019-05-02T15:07:08.817Z,12.05
2019-05-02T15:09:38.387Z,13.95
2019-05-02T15:12:16.006Z,10.58
2019-05-02T15:14:39.215Z,15.80
2019-05-02T15:17:08.957Z,16.35
2019-05-02T15:19:38.339Z,13.10
2019-05-02T15:22:07.883Z,16.87
2019-05-02T15:24:39.192Z,12.70
2019-05-02T15:27:17.360Z,10.90
2019-05-02T15:29:41.821Z,11.30
2019-05-02T15:32:12.827Z,12.13
2019-05-02T15:34:47.810Z,14.15
2019-05-02T15:37:16.875Z,11.65
2019-05-02T15:42:17.878Z,15.35
2019-05-02T15:44:47.553Z,9.55
2019-05-02T15:47:16.945Z,14.53
2019-05-02T15:49:46.435Z,14.38
2019-05-02T15:52:18.865Z,40.40
2019-05-02T15:54:55.475Z,11.53
2019-05-02T15:57:24.199Z,11.95
2019-05-02T15:59:51.825Z,7.87
2019-05-02T16:02:26.507Z,14.40
2019-05-02T16:04:56.950Z,18.07
2019-05-02T16:07:25.352Z,20.77
2019-05-02T16:09:59.969Z,10.45
2019-05-02T16:12:31.543Z,9.55
2019-05-02T16:14:58.320Z,18.80
2019-05-02T16:17:29.289Z,13.15
2019-05-02T16:20:07.619Z,11.73
2019-05-02T16:22:33.324Z,14.43
2019-05-02T16:25:03.402Z,15.45
2019-05-02T16:27:34.645Z,11.78
2019-05-02T16:30:08.535Z,14.13
2019-05-02T16:32:39.151Z,17.85
2019-05-02T16:35:15.292Z,14.57
2019-05-02T16:37:41.987Z,19.15
2019-05-02T16:40:12.087Z,14.07
2019-05-02T16:42:42.324Z,14.10
2019-05-02T16:45:13.212Z,12.55
2019-05-02T16:47:42.902Z,18.15
2019-05-02T16:50:13.086Z,17.32
2019-05-02T16:52:47.086Z,20.88
2019-05-02T16:55:21.157Z,19.00
2019-05-02T16:57:46.377Z,20.80
2019-05-02T17:00:18.083Z,21.17
2019-05-02T17:02:47.645Z,18.50
2019-05-02T17:05:17.852Z,23.80
2019-05-02T17:07:48.878Z,23.75
2019-05-02T17:10:20.043Z,23.02
2019-05-02T17:12:55.433Z,17.47
2019-05-02T17:15:26.250Z,27.27
2019-05-02T17:17:54.366Z,19.10
2019-05-02T17:20:24.101Z,16.60
2019-05-02T17:23:02.140Z,21.77
2019-05-02T17:25:24.913Z,21.20
2019-05-02T17:28:01.262Z,18.33
2019-05-02T17:30:25.942Z,19.03
2019-05-02T17:32:55.330Z,22.83
2019-05-02T17:35:24.846Z,20.20
2019-05-02T17:37:54.554Z,18.80
2019-05-02T17:40:26.104Z,22.80
2019-05-02T17:42:57.118Z,16.73
2019-05-02T17:45:26.518Z,19.83
2019-05-02T17:47:56.065Z,22.93
2019-05-02T17:50:27.250Z,25.40
2019-05-02T17:53:01.035Z,25.97
2019-05-02T17:55:32.832Z,23.40
2019-05-02T17:58:04.644Z,24.50
2019-05-02T18:00:34.650Z,41.17
2019-05-02T18:03:04.306Z,25.03
2019-05-02T18:05:35.764Z,33.33
2019-05-02T18:08:10.974Z,27.67
2019-05-02T18:10:37.241Z,33.60
2019-05-02T18:13:06.926Z,37.13
2019-05-02T18:15:36.476Z,30.33
2019-05-02T18:18:07.828Z,22.47
2019-05-02T18:20:42.045Z,18.77
2019-05-02T18:23:08.447Z,23.10
2019-05-02T18:25:37.946Z,21.87
2019-05-02T18:28:07.545Z,22.47
2019-05-02T18:30:37.060Z,18.33
2019-05-02T18:33:07.349Z,21.10
2019-05-02T18:35:37.298Z,20.50
2019-05-02T18:38:08.265Z,16.60
2019-05-02T18:40:37.667Z,17.90
2019-05-02T18:43:07.094Z,21.07
2019-05-02T18:45:36.526Z,17.17
2019-05-02T18:48:06.902Z,20.80
2019-05-02T18:50:42.535Z,24.90
2019-05-02T18:53:11.415Z,18.03
2019-05-02T18:55:42.183Z,21.33
2019-05-02T18:58:13.047Z,26.03
2019-05-02T19:00:42.766Z,27.27
2019-05-02T19:03:17.106Z,24.53
2019-05-02T19:05:46.695Z,27.60
2019-05-02T19:08:28.343Z,20.37
2019-05-02T19:11:02.593Z,21.47
2019-05-02T19:13:18.775Z,28.40
2019-05-02T19:15:49.063Z,28.73
2019-05-02T19:18:19.727Z,22.93
2019-05-02T19:20:52.510Z,33.80
2019-05-02T19:23:22.633Z,48.50
2019-05-02T19:25:52.827Z,38.10
2019-05-02T19:28:24.218Z,34.03
2019-05-02T19:30:57.253Z,49.10
2019-05-02T19:33:25.455Z,54.33
2019-05-02T19:35:55.201Z,67.60
2019-05-02T19:38:26.348Z,29.60
2019-05-02T19:40:58.154Z,26.60
2019-05-02T19:43:28.284Z,54.60
2019-05-02T19:45:57.975Z,211.30
2019-05-02T19:48:32.035Z,103.20
2019-05-02T19:50:58.856Z,31.73
2019-05-02T19:53:28.396Z,22.50
2019-05-02T19:56:01.480Z,26.17
2019-05-02T19:58:29.548Z,20.57
2019-05-02T20:00:59.018Z,21.37
2019-05-02T20:03:28.684Z,27.07
2019-05-02T20:06:02.283Z,20.23
2019-05-02T20:08:29.454Z,29.33
2019-05-02T20:11:01.939Z,25.07
2019-05-02T20:13:32.630Z,19.87
2019-05-02T20:16:05.777Z,23.93
2019-05-02T20:18:42.412Z,46.83
2019-05-02T20:21:12.122Z,24.07
2019-05-02T20:23:39.672Z,29.30
2019-05-02T20:26:14.580Z,26.10
2019-05-02T20:28:42.140Z,24.20
2019-05-02T20:31:12.379Z,36.57
2019-05-02T20:33:43.049Z,91.53
2019-05-02T20:36:12.922Z,34.40
2019-05-02T20:38:42.447Z,25.67
2019-05-02T20:41:12.731Z,33.57
2019-05-02T20:43:44.786Z,36.03
2019-05-02T20:46:13.581Z,39.53
2019-05-02T20:48:43.204Z,28.40
2019-05-02T20:51:12.784Z,27.67
2019-05-02T20:53:42.298Z,39.63
2019-05-02T20:56:12.374Z,27.07
2019-05-02T20:58:42.168Z,31.27
2019-05-02T21:01:12.594Z,29.13
2019-05-02T21:03:42.898Z,29.67
2019-05-02T21:06:14.229Z,27.63
2019-05-02T21:08:46.618Z,25.40
2019-05-02T21:11:16.202Z,32.63
2019-05-02T21:13:46.018Z,35.73
2019-05-02T21:16:15.823Z,32.63
2019-05-02T21:18:45.641Z,47.97
2019-05-02T21:21:15.261Z,38.67
2019-05-02T21:23:47.677Z,42.60
2019-05-02T21:26:15.998Z,33.33
2019-05-02T21:28:46.233Z,32.87
2019-05-02T21:31:16.036Z,26.87
2019-05-02T21:33:45.637Z,33.60
2019-05-02T21:36:15.129Z,33.53
2019-05-02T21:38:44.600Z,33.57
2019-05-02T21:41:14.871Z,31.33
2019-05-02T21:43:44.445Z,31.03
2019-05-02T21:46:13.978Z,27.23
2019-05-02T21:48:43.591Z,34.90
2019-05-02T21:51:14.933Z,30.97
2019-05-02T21:53:55.127Z,31.03
2019-05-02T21:56:19.051Z,34.93
2019-05-02T21:58:51.916Z,28.70
2019-05-02T22:01:22.235Z,30.47
2019-05-02T22:03:51.781Z,34.73
2019-05-02T22:06:22.671Z,30.33
2019-05-02T22:08:52.373Z,34.40
2019-05-02T22:11:22.583Z,33.33
2019-05-02T22:13:52.351Z,68.47
2019-05-02T22:16:21.966Z,31.17
2019-05-02T22:18:52.189Z,34.27
2019-05-02T22:21:22.803Z,34.10
2019-05-02T22:23:52.416Z,34.43
2019-05-02T22:26:22.109Z,28.80
2019-05-02T22:28:53.631Z,25.87
2019-05-02T22:31:22.987Z,29.93
2019-05-02T22:33:52.846Z,30.77
2019-05-02T22:36:22.711Z,31.30
2019-05-02T22:38:54.159Z,32.70
2019-05-02T22:41:23.761Z,28.53
2019-05-02T22:43:53.269Z,31.93
2019-05-02T22:46:24.403Z,30.23
2019-05-02T22:48:55.042Z,36.87
2019-05-02T22:51:24.547Z,37.70
2019-05-02T22:53:54.220Z,32.27
2019-05-02T22:56:23.759Z,27.87
2019-05-02T22:58:53.373Z,37.70
2019-05-02T23:01:22.873Z,34.57
2019-05-02T23:03:52.519Z,37.20
2019-05-02T23:06:22.176Z,39.13
2019-05-02T23:08:52.475Z,40.87
2019-05-02T23:11:24.504Z,32.60
2019-05-02T23:13:53.367Z,40.67
2019-05-02T23:16:22.752Z,33.50
2019-05-02T23:18:52.378Z,33.30
2019-05-02T23:21:21.971Z,34.87
2019-05-02T23:23:52.351Z,38.07
2019-05-02T23:26:23.753Z,37.47
2019-05-02T23:28:55.002Z,37.17
2019-05-02T23:31:24.532Z,34.07
2019-05-02T23:33:55.644Z,40.53
2019-05-02T23:36:26.021Z,34.67
2019-05-02T23:38:55.505Z,36.17
2019-05-02T23:41:24.904Z,34.47
2019-05-02T23:43:54.386Z,36.27
2019-05-02T23:46:24.088Z,37.63
2019-05-02T23:48:53.694Z,43.20
2019-05-02T23:51:23.124Z,33.37
2019-05-02T23:53:52.864Z,39.23
2019-05-02T23:56:23.643Z,32.23
2019-05-02T23:58:53.439Z,31.90
